Time;durP1;ratioP1;P1;durP2;ratioP2;P2;SDS_P1;SDS_P2;PMS_P1;PMS_P2;Temp;Humidity;BMP_temperature;BMP_pressure;BME280_temperature;BME280_humidity;BME280_pressure;Samples;Min_cycle;Max_cycle;Signal;HPM_P1;HPM_P2
2022/04/21 00:00:31;;;;;;;16.17;11.17;;;;;;;3.55;100.00;94724.13;5014158;28;20199;-90
2022/04/21 00:02:59;;;;;;;15.87;10.93;;;;;;;3.55;100.00;94724.88;5013362;28;20203;-86
2022/04/21 00:05:27;;;;;;;15.67;11.10;;;;;;;3.55;100.00;94721.53;5013634;28;20196;-87
2022/04/21 00:07:54;;;;;;;15.53;11.20;;;;;;;3.54;100.00;94725.88;5013319;28;20200;-87
2022/04/21 00:10:21;;;;;;;14.13;10.50;;;;;;;3.57;100.00;94711.88;5022125;28;20229;-84
2022/04/21 00:12:48;;;;;;;15.93;11.30;;;;;;;3.54;100.00;94719.94;5032888;28;20680;-91
2022/04/21 00:15:15;;;;;;;16.80;11.17;;;;;;;3.58;100.00;94713.50;5033607;28;20565;-90
2022/04/21 00:17:42;;;;;;;15.83;11.23;;;;;;;3.55;100.00;94724.88;5029856;28;20705;-90
2022/04/21 00:20:13;;;;;;;15.43;11.33;;;;;;;3.35;100.00;94701.47;5021605;28;20590;-90
2022/04/21 00:25:24;;;;;;;14.10;10.33;;;;;;;3.24;100.00;94726.75;5015285;28;20481;-87
2022/04/21 00:27:51;;;;;;;14.53;10.67;;;;;;;3.16;100.00;94719.09;5016765;28;20199;-88
2022/04/21 00:30:19;;;;;;;16.97;11.57;;;;;;;3.02;100.00;94720.63;5037262;28;20198;-87
2022/04/21 00:32:47;;;;;;;19.70;12.33;;;;;;;2.75;100.00;94706.50;5032520;28;20206;-87
2022/04/21 00:35:17;;;;;;;20.17;13.27;;;;;;;2.85;100.00;94729.41;5018808;28;20215;-87
2022/04/21 00:37:45;;;;;;;22.33;13.37;;;;;;;2.78;100.00;94724.13;5012499;28;20279;-87
2022/04/21 00:40:14;;;;;;;19.67;12.40;;;;;;;2.76;100.00;94728.66;5012865;28;20195;-87
2022/04/21 00:42:40;;;;;;;19.20;12.37;;;;;;;2.87;100.00;94732.59;5029444;28;20199;-87
2022/04/21 00:45:09;;;;;;;15.23;11.27;;;;;;;2.80;100.00;94716.25;5032087;28;20704;-87
2022/04/21 00:47:40;;;;;;;15.77;11.27;;;;;;;2.78;100.00;94718.19;5031866;28;20199;-87
2022/04/21 00:50:10;;;;;;;17.93;10.97;;;;;;;2.97;100.00;94727.25;5014239;28;20192;-87
2022/04/21 00:52:59;;;;;;;19.77;12.40;;;;;;;3.02;100.00;94723.22;5012178;28;20680;-87
2022/04/21 00:55:34;;;;;;;20.60;12.47;;;;;;;3.06;100.00;94726.25;5022008;28;20202;-87
2022/04/21 00:58:19;;;;;;;18.93;11.90;;;;;;;3.03;100.00;94722.22;5012346;28;20195;-86
2022/04/21 01:00:53;;;;;;;18.63;12.07;;;;;;;3.02;100.00;94712.94;5016268;28;20570;-84
2022/04/21 01:03:20;;;;;;;18.60;11.00;;;;;;;3.07;100.00;94722.69;5032130;28;20270;-84
2022/04/21 01:05:49;;;;;;;18.17;11.57;;;;;;;3.02;100.00;94724.97;5031795;28;20195;-83
2022/04/21 01:08:17;;;;;;;17.30;11.63;;;;;;;2.97;100.00;94722.13;5031357;28;20282;-85
2022/04/21 01:10:45;;;;;;;21.27;12.20;;;;;;;2.81;100.00;94723.81;5031366;28;20638;-85
2022/04/21 01:13:13;;;;;;;19.70;12.00;;;;;;;2.84;100.00;94717.53;5029180;28;20198;-84
2022/04/21 01:15:41;;;;;;;18.50;12.40;;;;;;;2.84;100.00;94717.53;5031846;28;20194;-83
2022/04/21 01:18:09;;;;;;;18.53;12.60;;;;;;;2.88;100.00;94712.88;5032167;28;20202;-85
2022/04/21 01:28:01;;;;;;;20.07;12.57;;;;;;;2.86;100.00;94674.53;5011971;28;20260;-83
2022/04/21 01:30:27;;;;;;;20.20;12.77;;;;;;;2.95;100.00;94683.78;5011916;28;20634;-84
2022/04/21 01:32:54;;;;;;;18.70;12.93;;;;;;;2.70;100.00;94649.00;5011976;28;20602;-84
2022/04/21 01:35:21;;;;;;;20.83;13.13;;;;;;;2.63;100.00;94648.88;5012109;28;20198;-84
2022/04/21 01:43:19;;;;;;;19.03;12.67;;;;;;;2.66;100.00;94675.94;5030370;28;20206;-84
2022/04/21 01:45:46;;;;;;;18.83;13.13;;;;;;;2.59;100.00;94685.28;5018320;28;20196;-84
2022/04/21 01:48:13;;;;;;;24.73;14.80;;;;;;;2.37;100.00;94643.22;5016156;28;20195;-84
2022/04/21 01:50:40;;;;;;;27.10;14.07;;;;;;;2.65;100.00;94671.78;5012634;28;20566;-84
2022/04/21 01:53:07;;;;;;;22.00;14.67;;;;;;;2.63;100.00;94669.38;5011851;28;20209;-84
2022/04/21 01:55:33;;;;;;;27.77;15.57;;;;;;;2.65;100.00;94676.91;5011575;28;20206;-85
2022/04/21 01:58:00;;;;;;;25.07;15.27;;;;;;;2.67;100.00;94678.34;5017628;28;20193;-85
2022/04/21 02:00:42;;;;;;;24.10;16.20;;;;;;;2.62;100.00;94669.56;5032717;28;20229;-85
2022/04/21 02:03:09;;;;;;;29.63;17.17;;;;;;;2.55;100.00;94666.06;5035474;28;20190;-85
2022/04/21 02:05:36;;;;;;;26.43;15.80;;;;;;;2.66;100.00;94676.75;5032755;28;20210;-86
2022/04/21 02:08:04;;;;;;;24.43;15.40;;;;;;;2.56;100.00;94653.09;5015732;28;20199;-85
2022/04/21 02:10:37;;;;;;;25.53;15.90;;;;;;;2.66;100.00;94653.66;5028407;28;20190;-85
2022/04/21 02:13:13;;;;;;;25.53;16.00;;;;;;;2.72;100.00;94662.44;5025891;28;20677;-83
2022/04/21 02:15:48;;;;;;;28.20;16.90;;;;;;;2.60;100.00;94638.94;5021252;28;20292;-84
2022/04/21 02:18:17;;;;;;;28.10;16.13;;;;;;;2.65;100.00;94643.56;5029293;28;20205;-85
2022/04/21 02:20:43;;;;;;;23.53;16.00;;;;;;;2.61;100.00;94637.97;5015194;28;20661;-85
2022/04/21 02:23:10;;;;;;;26.90;16.47;;;;;;;2.67;100.00;94657.81;5015063;28;20235;-85
2022/04/21 02:25:37;;;;;;;28.67;17.33;;;;;;;2.64;100.00;94658.16;5031625;28;20195;-83
2022/04/21 02:28:04;;;;;;;24.40;16.17;;;;;;;2.57;100.00;94664.16;5028041;28;20200;-86
2022/04/21 02:30:57;;;;;;;25.37;16.10;;;;;;;2.51;100.00;94659.69;5015001;28;20199;-85
2022/04/21 02:33:24;;;;;;;29.17;16.17;;;;;;;2.47;100.00;94658.41;5023172;28;20204;-84
2022/04/21 02:35:57;;;;;;;26.63;16.50;;;;;;;2.47;100.00;94660.97;5015443;28;20274;-85
2022/04/21 02:38:24;;;;;;;26.47;16.53;;;;;;;2.55;100.00;94668.63;5015910;28;20191;-84
2022/04/21 02:40:51;;;;;;;24.70;16.30;;;;;;;2.57;100.00;94670.06;5026719;28;20199;-84
2022/04/21 02:43:18;;;;;;;23.77;15.70;;;;;;;2.43;100.00;94645.13;5028139;28;20199;-84
2022/04/21 02:45:45;;;;;;;25.30;16.10;;;;;;;2.57;100.00;94675.19;5024036;28;20195;-86
2022/04/21 02:48:37;;;;;;;28.63;17.07;;;;;;;2.55;100.00;94678.88;5034851;28;20202;-86
2022/04/21 02:51:06;;;;;;;26.47;16.27;;;;;;;2.53;100.00;94675.69;5026336;28;20191;-83
2022/04/21 02:59:06;;;;;;;29.87;18.20;;;;;;;2.40;100.00;94670.28;5019708;28;20217;-85
2022/04/21 03:01:33;;;;;;;27.03;17.73;;;;;;;2.36;100.00;94671.63;5014533;28;20183;-83
2022/04/21 03:04:01;;;;;;;29.10;17.77;;;;;;;2.25;100.00;94653.06;5020585;28;20209;-86
2022/04/21 03:06:28;;;;;;;26.37;17.53;;;;;;;2.37;100.00;94663.75;5034621;28;20679;-86
2022/04/21 03:08:54;;;;;;;27.63;18.03;;;;;;;2.35;100.00;94677.69;5040323;28;20206;-85
2022/04/21 03:11:21;;;;;;;30.03;18.37;;;;;;;2.25;100.00;94677.94;5027683;28;20570;-86
2022/04/21 03:13:48;;;;;;;28.30;17.10;;;;;;;2.05;100.00;94658.78;5015332;28;20194;-86
2022/04/21 03:16:15;;;;;;;27.70;16.43;;;;;;;2.00;100.00;94672.06;5022571;28;20195;-85
2022/04/21 03:18:42;;;;;;;23.93;14.53;;;;;;;2.02;100.00;94670.13;5025806;28;20195;-86
2022/04/21 03:24:21;;;;;;;21.40;13.17;;;;;;;2.02;100.00;94659.09;5026260;28;20286;-88
2022/04/21 03:26:49;;;;;;;22.63;14.33;;;;;;;1.95;100.00;94658.16;5026713;28;20193;-85
2022/04/21 03:29:17;;;;;;;21.90;13.43;;;;;;;1.86;100.00;94659.94;5025178;28;20677;-85
2022/04/21 03:31:52;;;;;;;24.23;14.93;;;;;;;1.81;100.00;94661.41;5029744;28;20212;-87
2022/04/21 03:34:20;;;;;;;22.83;14.73;;;;;;;1.83;100.00;94662.84;5022604;28;20188;-87
2022/04/21 03:36:57;;;;;;;25.90;15.10;;;;;;;1.99;100.00;94659.44;5016448;28;20692;-87
2022/04/21 03:39:23;;;;;;;21.40;13.37;;;;;;;1.90;100.00;94665.56;5022259;28;20533;-86
2022/04/21 03:41:53;;;;;;;22.70;12.97;;;;;;;1.86;100.00;94648.91;5013596;28;20198;-86
2022/04/21 03:44:21;;;;;;;22.70;15.03;;;;;;;1.97;100.00;94666.47;5030717;28;20194;-86
2022/04/21 03:46:58;;;;;;;26.07;16.60;;;;;;;1.92;100.00;94651.59;5033519;28;20198;-85
2022/04/21 03:49:27;;;;;;;26.67;16.30;;;;;;;1.94;100.00;94647.09;5013417;28;20690;-85
2022/04/21 03:51:53;;;;;;;32.47;19.70;;;;;;;1.95;100.00;94651.28;5022773;28;20325;-84
2022/04/21 03:55:01;;;;;;;36.43;21.33;;;;;;;2.08;100.00;94658.41;5029987;28;20210;-84
2022/04/21 03:57:29;;;;;;;35.70;22.50;;;;;;;2.09;100.00;94665.16;5017295;28;20584;-75
2022/04/21 03:59:55;;;;;;;40.30;23.07;;;;;;;2.06;100.00;94665.47;5009400;28;20206;-74
2022/04/21 04:02:22;;;;;;;40.73;22.47;;;;;;;2.06;100.00;94668.84;5021191;28;20203;-73
2022/04/21 04:04:49;;;;;;;35.53;21.20;;;;;;;2.10;100.00;94666.75;5021786;28;20208;-75
2022/04/21 04:12:45;;;;;;;37.63;22.10;;;;;;;2.23;100.00;94670.38;5020844;28;20248;-75
2022/04/21 04:15:12;;;;;;;35.80;21.90;;;;;;;2.35;100.00;94677.69;5022264;28;20194;-75
2022/04/21 04:17:39;;;;;;;31.80;19.50;;;;;;;2.40;100.00;94680.56;5017624;28;20207;-76
2022/04/21 04:20:07;;;;;;;31.77;20.73;;;;;;;2.37;100.00;94670.66;5025387;28;20199;-73
2022/04/21 04:22:36;;;;;;;34.13;20.50;;;;;;;2.46;100.00;94682.44;5019963;28;20195;-75
2022/04/21 04:25:02;;;;;;;36.27;20.50;;;;;;;2.57;100.00;94670.06;5015134;28;20278;-76
2022/04/21 04:27:29;;;;;;;30.90;20.33;;;;;;;2.66;100.00;94663.91;5016562;28;20197;-74
2022/04/21 04:29:57;;;;;;;33.27;19.93;;;;;;;2.68;100.00;94677.38;5022487;28;20207;-75
2022/04/21 04:32:24;;;;;;;31.33;19.67;;;;;;;2.76;100.00;94664.50;5016775;28;20213;-75
2022/04/21 04:34:51;;;;;;;35.20;21.47;;;;;;;2.79;100.00;94660.81;5014542;28;20211;-74
2022/04/21 04:37:18;;;;;;;36.87;21.30;;;;;;;2.88;100.00;94661.53;5022458;28;20670;-74
2022/04/21 04:39:44;;;;;;;38.00;22.03;;;;;;;2.96;100.00;94664.06;5014525;28;20196;-75
2022/04/21 04:42:17;;;;;;;36.00;21.57;;;;;;;3.03;100.00;94665.75;5014573;28;20196;-74
2022/04/21 04:44:44;;;;;;;38.60;22.20;;;;;;;3.06;100.00;94670.53;5020772;28;20195;-75
2022/04/21 04:47:11;;;;;;;37.63;22.53;;;;;;;3.07;100.00;94676.47;5014513;28;20218;-74
2022/04/21 04:49:38;;;;;;;40.47;22.73;;;;;;;3.09;100.00;94672.78;5020139;28;20203;-74
2022/04/21 04:52:06;;;;;;;40.70;23.57;;;;;;;3.16;100.00;94668.56;5018151;28;20219;-74
2022/04/21 04:54:33;;;;;;;40.27;23.90;;;;;;;3.24;100.00;94670.25;5013949;28;20287;-74
2022/04/21 04:57:00;;;;;;;38.10;24.13;;;;;;;3.24;100.00;94670.25;5019568;28;20545;-73
2022/04/21 04:59:29;;;;;;;42.93;23.90;;;;;;;3.33;100.00;94685.44;5018068;28;20204;-73
2022/04/21 05:01:56;;;;;;;38.57;24.50;;;;;;;3.40;100.00;94683.78;5021186;28;20256;-75
2022/04/21 05:04:25;;;;;;;37.27;23.40;;;;;;;3.49;100.00;94678.56;5018946;28;20191;-74
2022/04/21 05:06:53;;;;;;;40.50;23.20;;;;;;;3.58;100.00;94677.53;5018197;28;20215;-73
2022/04/21 05:09:22;;;;;;;36.37;21.60;;;;;;;3.63;100.00;94677.78;5018266;28;20545;-73
2022/04/21 05:11:51;;;;;;;37.03;22.60;;;;;;;3.72;100.00;94685.22;5020200;28;20271;-75
2022/04/21 05:14:19;;;;;;;43.03;22.83;;;;;;;3.72;100.00;94687.03;5018986;28;20234;-74
2022/04/21 05:16:46;;;;;;;37.07;22.90;;;;;;;3.73;100.00;94678.31;5017160;28;20281;-74
2022/04/21 05:19:15;;;;;;;41.30;22.30;;;;;;;3.85;100.00;94700.88;5017958;28;20201;-74
2022/04/21 05:21:45;;;;;;;36.17;22.47;;;;;;;3.92;100.00;94698.41;5016784;28;20198;-75
2022/04/21 05:24:13;;;;;;;44.17;22.67;;;;;;;4.03;100.00;94697.16;5019223;28;20977;-74
2022/04/21 05:26:41;;;;;;;38.77;23.63;;;;;;;4.01;100.00;94687.84;5021794;28;20226;-74
2022/04/21 05:31:50;;;;;;;31.70;20.73;;;;;;;4.14;100.00;94696.72;5018230;28;20214;-74
2022/04/21 05:34:17;;;;;;;38.27;22.20;;;;;;;4.14;100.00;94700.09;5015109;28;20202;-75
2022/04/21 05:36:48;;;;;;;34.70;22.23;;;;;;;4.16;100.00;94692.19;5019990;28;20187;-75
2022/04/21 05:39:16;;;;;;;35.07;22.07;;;;;;;4.29;100.00;94693.16;5021500;28;20196;-74
2022/04/21 05:41:44;;;;;;;32.23;20.33;;;;;;;4.41;100.00;94690.94;5015859;28;20703;-75
2022/04/21 05:44:11;;;;;;;31.20;19.37;;;;;;;4.50;100.00;94697.59;5019924;28;20194;-74
2022/04/21 05:46:39;;;;;;;29.67;17.60;;;;;;;4.54;100.00;94688.53;5021204;28;20666;-74
2022/04/21 05:49:06;;;;;;;26.77;16.00;;;;;;;4.58;100.00;94682.84;5021710;28;20194;-73
2022/04/21 05:51:34;;;;;;;25.43;17.37;;;;;;;4.70;100.00;94690.09;5021443;28;20249;-76
2022/04/21 05:54:06;;;;;;;28.17;18.40;;;;;;;4.70;100.00;94685.75;5018347;28;20993;-73
2022/04/21 05:56:33;;;;;;;29.33;18.93;;;;;;;4.70;100.00;94677.22;5024365;28;20202;-73
2022/04/21 05:59:00;;;;;;;32.37;19.67;;;;;;;4.77;100.00;94694.31;5018522;28;20701;-73
2022/04/21 06:01:28;;;;;;;27.03;17.97;;;;;;;4.87;100.00;94692.28;5019533;28;20247;-75
2022/04/21 06:03:57;;;;;;;30.37;19.27;;;;;;;4.94;100.00;94684.59;5017390;28;20200;-76
2022/04/21 06:06:24;;;;;;;29.13;18.33;;;;;;;5.03;100.00;94688.66;5017885;28;20235;-75
2022/04/21 06:08:50;;;;;;;30.63;19.90;;;;;;;5.11;100.00;94681.63;5018397;28;20193;-74
2022/04/21 06:11:18;;;;;;;32.17;19.17;;;;;;;5.21;100.00;94681.31;5020646;28;20212;-74
2022/04/21 06:13:46;;;;;;;34.30;20.73;;;;;;;5.33;100.00;94690.16;5018395;28;20229;-73
2022/04/21 06:16:12;;;;;;;31.87;19.57;;;;;;;5.42;100.00;94689.03;5020938;28;20196;-74
2022/04/21 06:18:39;;;;;;;33.07;20.30;;;;;;;5.47;100.00;94694.44;5021450;28;20220;-74
2022/04/21 06:21:07;;;;;;;31.87;19.87;;;;;;;5.49;100.00;94686.50;5020166;28;20210;-75
2022/04/21 06:23:34;;;;;;;27.37;19.07;;;;;;;5.51;100.00;94695.63;5018048;28;20679;-75
2022/04/21 06:26:03;;;;;;;32.10;19.10;;;;;;;5.56;100.00;94690.75;5021224;28;20205;-74
2022/04/21 06:28:31;;;;;;;33.90;20.07;;;;;;;5.61;100.00;94698.72;5018345;28;20288;-75
2022/04/21 06:30:58;;;;;;;33.00;19.77;;;;;;;5.49;100.00;94681.34;5020346;28;20252;-74
2022/04/21 06:33:25;;;;;;;31.27;19.97;;;;;;;5.56;100.00;94692.53;5018961;28;20572;-73
2022/04/21 06:35:52;;;;;;;32.17;19.97;;;;;;;5.59;100.00;94690.38;5015838;28;20201;-76
2022/04/21 06:38:18;;;;;;;30.67;17.93;;;;;;;5.66;100.00;94695.56;5018066;28;20694;-72
2022/04/21 06:40:45;;;;;;;31.63;19.47;;;;;;;5.61;100.00;94690.97;5019568;28;20208;-80
2022/04/21 06:48:43;;;;;;;32.13;19.83;;;;;;;5.86;100.00;94688.81;5015282;28;20596;-78
2022/04/21 06:51:11;;;;;;;28.20;18.57;;;;;;;5.98;100.00;94687.31;5022799;28;20207;-80
2022/04/21 06:53:39;;;;;;;27.63;18.40;;;;;;;6.00;100.00;94687.91;5029346;28;20217;-81
2022/04/21 06:56:06;;;;;;;27.50;18.93;;;;;;;6.18;100.00;94688.22;5022813;28;20201;-81
2022/04/21 06:58:33;;;;;;;26.30;18.67;;;;;;;6.21;100.00;94693.00;5019716;28;20211;-81
2022/04/21 07:01:03;;;;;;;30.63;17.80;;;;;;;6.23;100.00;94692.81;5024390;28;20254;-80
2022/04/21 07:03:30;;;;;;;28.60;18.20;;;;;;;6.32;99.66;94696.03;5024680;28;20276;-80
2022/04/21 07:05:57;;;;;;;28.33;18.40;;;;;;;6.41;100.00;94698.25;5025098;28;20201;-82
2022/04/21 07:08:24;;;;;;;25.23;17.80;;;;;;;6.48;99.37;94695.72;5027077;28;20205;-82
2022/04/21 07:10:51;;;;;;;26.53;16.90;;;;;;;6.57;98.13;94703.13;5019257;28;20230;-78
2022/04/21 07:13:18;;;;;;;25.93;17.93;;;;;;;6.63;98.88;94704.13;5010432;28;20655;-78
2022/04/21 07:15:45;;;;;;;29.63;16.40;;;;;;;6.65;97.09;94712.47;5023039;28;20256;-80
2022/04/21 07:18:13;;;;;;;31.40;17.53;;;;;;;6.72;96.31;94708.91;5006805;28;20201;-77
2022/04/21 07:20:40;;;;;;;30.43;18.07;;;;;;;6.75;97.04;94710.34;5016040;28;20233;-79
2022/04/21 07:23:07;;;;;;;31.00;18.93;;;;;;;6.83;96.93;94705.81;5014490;28;20272;-77
2022/04/21 07:25:34;;;;;;;29.17;18.43;;;;;;;6.97;98.31;94719.56;5017630;28;20645;-78
2022/04/21 07:28:01;;;;;;;29.80;19.43;;;;;;;7.05;96.28;94729.72;5013294;28;20579;-79
2022/04/21 07:30:28;;;;;;;32.60;19.60;;;;;;;7.01;95.89;94725.13;5013359;28;20199;-78
2022/04/21 07:32:55;;;;;;;29.90;19.63;;;;;;;7.04;94.42;94740.25;5020862;28;20317;-78
2022/04/21 07:35:24;;;;;;;31.17;21.03;;;;;;;7.06;95.69;94735.69;5023842;28;20248;-79
2022/04/21 07:37:51;;;;;;;31.90;19.33;;;;;;;7.14;95.52;94744.06;5028962;28;20198;-78
2022/04/21 07:40:20;;;;;;;29.27;20.07;;;;;;;7.20;94.46;94732.16;5026115;28;20203;-78
2022/04/21 07:42:47;;;;;;;31.70;20.77;;;;;;;7.27;94.86;94731.16;5019962;28;20276;-78
2022/04/21 07:45:15;;;;;;;31.03;19.77;;;;;;;7.35;95.06;94723.25;5023927;28;20199;-79
2022/04/21 07:47:41;;;;;;;31.17;20.13;;;;;;;7.50;93.54;94735.19;5022691;28;20206;-79
2022/04/21 07:50:09;;;;;;;31.67;19.97;;;;;;;7.62;93.99;94728.47;5025078;28;20255;-78
2022/04/21 07:55:26;;;;;;;29.03;19.70;;;;;;;7.70;91.80;94734.22;5022517;28;20207;-78
2022/04/21 07:57:55;;;;;;;38.10;20.13;;;;;;;7.80;91.60;94729.44;5026330;28;20191;-78
2022/04/21 08:00:22;;;;;;;29.90;20.47;;;;;;;7.81;90.93;94728.47;5023390;28;20199;-79
2022/04/21 08:02:50;;;;;;;30.97;19.67;;;;;;;7.95;91.43;94737.81;5020406;28;20213;-78
2022/04/21 08:05:19;;;;;;;33.47;19.03;;;;;;;8.00;91.16;94724.25;5025892;28;20202;-79
2022/04/21 08:07:48;;;;;;;34.53;20.97;;;;;;;8.06;90.39;94735.59;5019072;28;20195;-78
2022/04/21 08:10:15;;;;;;;35.10;18.83;;;;;;;8.00;91.13;94729.44;5023293;28;20195;-79
2022/04/21 08:12:44;;;;;;;29.40;18.70;;;;;;;8.08;92.07;94715.53;5026267;28;20195;-79
2022/04/21 08:15:12;;;;;;;27.63;18.83;;;;;;;8.08;91.70;94712.94;5029258;28;20582;-78
2022/04/21 08:17:39;;;;;;;31.90;20.07;;;;;;;8.30;90.62;94724.66;5031135;28;20663;-79
2022/04/21 08:20:08;;;;;;;34.73;20.73;;;;;;;8.36;90.11;94734.22;5020301;28;20192;-78
2022/04/21 08:22:36;;;;;;;31.87;20.20;;;;;;;8.44;90.05;94721.06;5020924;28;20195;-79
2022/04/21 08:33:19;;;;;;;34.23;19.83;;;;;;;8.67;87.52;94736.13;5015163;28;20265;-80
2022/04/21 08:35:47;;;;;;;30.90;20.37;;;;;;;8.62;87.49;94728.19;5018313;28;20199;-76
2022/04/21 08:38:16;;;;;;;33.00;20.77;;;;;;;8.57;90.06;94731.41;5021472;28;20198;-75
2022/04/21 08:40:51;;;;;;;33.80;21.37;;;;;;;8.64;88.67;94721.78;5021461;28;20608;-78
2022/04/21 08:43:18;;;;;;;31.50;21.00;;;;;;;8.60;87.52;94715.41;5017099;28;20188;-86
2022/04/21 08:45:48;;;;;;;35.17;21.27;;;;;;;8.86;91.94;94724.91;5009749;28;20230;-79
2022/04/21 08:48:17;;;;;;;32.93;20.57;;;;;;;8.95;91.49;94718.47;5022864;28;20203;-79
2022/04/21 08:50:44;;;;;;;31.20;19.03;;;;;;;9.36;100.00;94699.94;5019521;28;20199;-75
2022/04/21 08:53:12;;;;;;;33.73;20.33;;;;;;;9.65;94.91;94697.53;5023090;28;20226;-79
2022/04/21 08:55:40;;;;;;;38.23;20.37;;;;;;;9.99;95.14;94700.66;5025412;28;20198;-79
2022/04/21 08:58:11;;;;;;;33.63;20.47;;;;;;;10.10;86.07;94710.38;5018915;28;20200;-80
2022/04/21 09:00:38;;;;;;;35.10;22.17;;;;;;;9.91;83.96;94704.31;5019781;28;20219;-76
2022/04/21 09:03:07;;;;;;;30.97;19.73;;;;;;;9.81;85.67;94711.00;5020632;28;20254;-78
2022/04/21 09:05:34;;;;;;;28.40;20.03;;;;;;;9.81;86.56;94703.22;5022055;28;20187;-77
2022/04/21 09:08:01;;;;;;;31.17;20.60;;;;;;;9.78;85.94;94703.66;5021986;28;20195;-78
2022/04/21 09:10:29;;;;;;;36.37;21.30;;;;;;;9.89;86.38;94701.16;5018068;28;20195;-77
2022/04/21 09:12:59;;;;;;;33.83;22.40;;;;;;;9.88;86.07;94701.34;5021195;28;20202;-78
2022/04/21 09:15:29;;;;;;;35.70;21.50;;;;;;;9.90;85.77;94696.75;5021748;28;20199;-78
2022/04/21 09:17:58;;;;;;;37.87;21.50;;;;;;;10.04;83.56;94701.59;5021567;28;20638;-79
2022/04/21 09:20:26;;;;;;;34.57;21.50;;;;;;;10.13;85.92;94697.75;5019848;28;20203;-77
2022/04/21 09:22:54;;;;;;;36.23;21.97;;;;;;;10.13;83.95;94692.56;5021520;28;20215;-77
2022/04/21 09:25:23;;;;;;;36.43;22.73;;;;;;;10.20;85.04;94701.09;5021611;28;20242;-78
2022/04/21 09:27:50;;;;;;;40.63;22.20;;;;;;;10.27;84.83;94703.66;5020452;28;20222;-78
2022/04/21 09:30:17;;;;;;;37.73;22.67;;;;;;;10.30;84.61;94694.63;5019438;28;20218;-77
2022/04/21 09:32:54;;;;;;;37.20;21.87;;;;;;;10.39;83.68;94701.16;5021940;28;20199;-85
2022/04/21 09:35:22;;;;;;;31.87;21.33;;;;;;;10.49;83.14;94706.63;5024128;28;20216;-77
2022/04/21 09:37:51;;;;;;;42.57;21.73;;;;;;;10.59;82.43;94705.09;5019808;28;20207;-76
2022/04/21 09:40:20;;;;;;;35.00;21.40;;;;;;;10.67;83.14;94706.63;5021865;28;20203;-77
2022/04/21 09:42:57;;;;;;;32.03;21.13;;;;;;;10.69;80.32;94709.81;5020305;28;20639;-77
2022/04/21 09:48:22;;;;;;;33.47;21.10;;;;;;;10.49;82.98;94704.03;5020899;28;20229;-77
2022/04/21 09:50:52;;;;;;;36.93;20.93;;;;;;;10.38;82.65;94692.56;5019925;28;20658;-77
2022/04/21 09:53:20;;;;;;;36.10;20.83;;;;;;;10.53;81.88;94705.19;5018137;28;20702;-76
2022/04/21 09:55:49;;;;;;;31.87;20.77;;;;;;;10.60;82.45;94705.91;5020220;28;20250;-77
2022/04/21 09:58:20;;;;;;;43.53;22.07;;;;;;;10.62;83.72;94696.88;5018637;28;20198;-78
2022/04/21 10:00:47;;;;;;;34.73;22.23;;;;;;;10.70;83.16;94704.41;5019053;28;20198;-77
2022/04/21 10:03:14;;;;;;;30.37;20.83;;;;;;;10.67;82.14;94704.84;5018327;28;20661;-77
2022/04/21 10:05:44;;;;;;;34.53;21.30;;;;;;;10.54;82.04;94694.56;5021815;28;20850;-77
2022/04/21 10:08:11;;;;;;;34.23;21.87;;;;;;;10.56;83.74;94696.97;5023169;28;20249;-77
2022/04/21 10:10:39;;;;;;;37.50;23.90;;;;;;;10.54;84.42;94691.97;5021636;28;20198;-77
2022/04/21 10:13:07;;;;;;;40.57;21.67;;;;;;;10.63;83.17;94692.47;5022896;28;20199;-77
2022/04/21 10:15:35;;;;;;;40.60;25.23;;;;;;;10.77;82.79;94675.72;5016534;28;20219;-77
2022/04/21 10:18:02;;;;;;;33.43;21.87;;;;;;;10.77;81.81;94689.50;5013094;28;20200;-76
2022/04/21 10:20:33;;;;;;;39.97;23.97;;;;;;;10.87;82.28;94685.59;5013938;28;20203;-76
2022/04/21 10:23:03;;;;;;;44.37;21.80;;;;;;;10.90;82.22;94683.38;5019101;28;20223;-75
2022/04/21 10:25:42;;;;;;;39.97;22.87;;;;;;;10.85;82.97;94685.81;5017448;28;20199;-76
2022/04/21 10:28:43;;;;;;;45.83;24.13;;;;;;;10.81;84.27;94682.06;5017554;28;20198;-76
2022/04/21 10:31:33;;;;;;;34.97;22.70;;;;;;;10.89;82.94;94676.56;4942557;29;20256;-76
2022/04/21 10:34:03;;;;;;;40.90;23.87;;;;;;;10.79;83.27;94671.88;4943156;29;20596;-77
2022/04/21 10:36:42;;;;;;;35.60;23.20;;;;;;;10.89;83.35;94675.78;4994600;28;20201;-77
2022/04/21 10:39:30;;;;;;;40.53;25.33;;;;;;;11.10;83.78;94678.72;5020610;28;20182;-78
2022/04/21 10:42:15;;;;;;;38.00;23.17;;;;;;;11.09;82.26;94676.31;5021459;28;20199;-78
2022/04/21 10:44:46;;;;;;;39.17;24.23;;;;;;;11.05;82.75;94678.59;5023775;28;20194;-78
2022/04/21 10:47:35;;;;;;;46.33;23.73;;;;;;;11.00;83.03;94675.81;5022560;28;20206;-78
2022/04/21 10:50:11;;;;;;;38.30;24.60;;;;;;;10.81;84.09;94664.69;5023944;28;20191;-79
2022/04/21 10:58:51;;;;;;;65.20;24.50;;;;;;;11.37;82.81;94673.91;5021561;28;20198;-77
2022/04/21 11:01:34;;;;;;;53.63;24.63;;;;;;;11.74;82.03;94677.22;5023473;28;20200;-77
2022/04/21 11:04:22;;;;;;;40.10;23.03;;;;;;;12.06;79.11;94675.91;5021550;28;20175;-77
2022/04/21 11:06:51;;;;;;;49.27;23.60;;;;;;;12.48;78.33;94669.53;5022296;28;20203;-77
2022/04/21 11:09:38;;;;;;;41.87;23.93;;;;;;;12.71;78.01;94673.91;5024486;28;20200;-77
2022/04/21 11:12:14;;;;;;;45.97;24.50;;;;;;;12.79;78.32;94670.94;5023506;28;20248;-77
2022/04/21 11:14:42;;;;;;;35.13;23.87;;;;;;;13.28;77.72;94672.16;5025437;28;20570;-78
2022/04/21 11:17:09;;;;;;;38.47;23.73;;;;;;;13.78;77.44;94668.84;5022788;28;20203;-77
2022/04/21 11:19:40;;;;;;;37.97;24.60;;;;;;;14.08;74.57;94675.31;5030023;28;20638;-78
2022/04/21 11:22:10;;;;;;;38.57;24.63;;;;;;;14.45;73.18;94673.03;5021607;28;20655;-78
2022/04/21 11:25:03;;;;;;;43.13;24.80;;;;;;;14.69;71.36;94670.97;5021241;28;20261;-79
2022/04/21 11:27:34;;;;;;;47.17;25.23;;;;;;;14.76;71.73;94667.16;5016503;28;20247;-77
2022/04/21 11:30:07;;;;;;;47.27;28.83;;;;;;;15.10;71.65;94674.84;5013503;28;20192;-78
2022/04/21 11:32:37;;;;;;;41.47;26.53;;;;;;;15.37;71.03;94667.03;5012937;28;20191;-78
2022/04/21 11:35:07;;;;;;;36.33;24.43;;;;;;;15.38;70.16;94666.00;5025059;28;20670;-78
2022/04/21 11:37:55;;;;;;;38.43;23.63;;;;;;;15.27;67.75;94665.09;5016268;28;20665;-77
2022/04/21 11:40:25;;;;;;;32.40;23.03;;;;;;;15.25;67.72;94662.72;5009100;28;20206;-77
2022/04/21 11:42:56;;;;;;;32.63;22.40;;;;;;;15.13;66.90;94662.06;5020522;28;20563;-76
2022/04/21 11:45:24;;;;;;;34.70;21.97;;;;;;;15.45;68.22;94661.34;5019378;28;20568;-77
2022/04/21 11:47:51;;;;;;;34.47;22.67;;;;;;;15.86;69.00;94651.03;5013468;28;20203;-76
2022/04/21 11:50:22;;;;;;;36.33;23.03;;;;;;;16.31;68.39;94649.75;5013181;28;20716;-75
2022/04/21 11:52:52;;;;;;;31.73;21.97;;;;;;;16.65;66.17;94640.50;5012792;28;20187;-77
2022/04/21 11:55:21;;;;;;;35.77;22.93;;;;;;;17.02;63.15;94635.97;5018253;28;21970;-78
2022/04/21 11:57:48;;;;;;;32.53;22.33;;;;;;;17.33;63.73;94626.31;5021420;28;20275;-76
2022/04/21 12:06:27;;;;;;;34.70;22.20;;;;;;;17.36;64.22;94625.00;5021141;28;20195;-78
2022/04/21 12:08:37;;;;;;;36.83;21.23;;;;;;;18.44;61.82;94615.78;5018518;28;20203;-79
2022/04/21 12:11:09;;;;;;;31.50;21.83;;;;;;;18.42;59.55;94617.88;5020565;28;20206;-79
2022/04/21 12:13:36;;;;;;;32.00;21.40;;;;;;;18.55;60.58;94617.38;5021398;28;20195;-79
2022/04/21 12:16:05;;;;;;;27.70;19.83;;;;;;;18.57;58.67;94614.47;5021963;28;20334;-79
2022/04/21 12:18:46;;;;;;;31.30;19.87;;;;;;;18.66;58.24;94612.84;5023447;28;20202;-79
2022/04/21 12:21:13;;;;;;;31.37;21.53;;;;;;;19.04;58.12;94616.66;5022074;28;20222;-79
2022/04/21 12:23:40;;;;;;;34.20;21.45;;;;;;;19.25;56.89;94615.47;5020024;28;20966;-78
2022/04/21 12:26:08;;;;;;;26.90;19.17;;;;;;;19.43;51.68;94606.16;5023452;28;20193;-80
2022/04/21 12:28:47;;;;;;;28.65;18.88;;;;;;;19.26;51.37;94607.31;5022126;28;20191;-78
2022/04/21 12:31:20;;;;;;;29.17;18.70;;;;;;;19.16;52.41;94607.34;5022651;28;20241;-80
2022/04/21 12:33:50;;;;;;;30.08;18.60;;;;;;;19.38;52.95;94604.34;5019907;28;20634;-76